sensor_id;sensor_type;location;lat;lon;timestamp;temperature;humidity
59572;DHT22;59406;45.602;11.904;2022-11-20T00:03:35;10.30;84.20
59572;DHT22;59406;45.602;11.904;2022-11-20T00:06:06;10.20;84.20
59572;DHT22;59406;45.602;11.904;2022-11-20T00:08:32;10.30;84.30
59572;DHT22;59406;45.602;11.904;2022-11-20T00:11:03;10.30;84.20
59572;DHT22;59406;45.602;11.904;2022-11-20T00:13:30;10.30;84.20
59572;DHT22;59406;45.602;11.904;2022-11-20T00:16:00;10.30;84.10
59572;DHT22;59406;45.602;11.904;2022-11-20T00:18:27;10.30;84.20
59572;DHT22;59406;45.602;11.904;2022-11-20T00:20:59;10.30;84.30
59572;DHT22;59406;45.602;11.904;2022-11-20T00:23:25;10.20;84.30
59572;DHT22;59406;45.602;11.904;2022-11-20T00:25:51;10.10;84.40
59572;DHT22;59406;45.602;11.904;2022-11-20T00:28:17;10.20;84.50
59572;DHT22;59406;45.602;11.904;2022-11-20T00:30:43;10.00;84.40
59572;DHT22;59406;45.602;11.904;2022-11-20T00:33:08;10.20;84.40
59572;DHT22;59406;45.602;11.904;2022-11-20T00:35:34;10.10;84.40
59572;DHT22;59406;45.602;11.904;2022-11-20T00:38:00;10.00;84.50
59572;DHT22;59406;45.602;11.904;2022-11-20T00:40:26;10.00;84.60
59572;DHT22;59406;45.602;11.904;2022-11-20T00:42:52;10.00;84.60
59572;DHT22;59406;45.602;11.904;2022-11-20T00:45:17;10.00;84.50
59572;DHT22;59406;45.602;11.904;2022-11-20T00:47:43;10.00;84.60
59572;DHT22;59406;45.602;11.904;2022-11-20T00:50:09;9.90;84.70
59572;DHT22;59406;45.602;11.904;2022-11-20T00:52:35;9.80;84.80
59572;DHT22;59406;45.602;11.904;2022-11-20T00:55:00;9.80;84.80
59572;DHT22;59406;45.602;11.904;2022-11-20T00:57:26;9.80;84.70
59572;DHT22;59406;45.602;11.904;2022-11-20T00:59:55;9.70;84.70
59572;DHT22;59406;45.602;11.904;2022-11-20T01:02:21;9.80;84.90
59572;DHT22;59406;45.602;11.904;2022-11-20T01:04:46;9.70;84.90
59572;DHT22;59406;45.602;11.904;2022-11-20T01:07:12;9.70;84.80
59572;DHT22;59406;45.602;11.904;2022-11-20T01:09:38;9.70;84.80
59572;DHT22;59406;45.602;11.904;2022-11-20T01:12:04;9.60;85.10
59572;DHT22;59406;45.602;11.904;2022-11-20T01:14:30;9.50;85.20
59572;DHT22;59406;45.602;11.904;2022-11-20T01:16:56;9.40;85.20
59572;DHT22;59406;45.602;11.904;2022-11-20T01:19:23;9.30;85.20
59572;DHT22;59406;45.602;11.904;2022-11-20T01:21:51;9.40;85.40
59572;DHT22;59406;45.602;11.904;2022-11-20T01:24:19;9.30;85.40
59572;DHT22;59406;45.602;11.904;2022-11-20T01:26:48;9.10;85.60
59572;DHT22;59406;45.602;11.904;2022-11-20T01:29:17;9.10;85.60
59572;DHT22;59406;45.602;11.904;2022-11-20T01:31:44;9.00;85.90
59572;DHT22;59406;45.602;11.904;2022-11-20T01:34:13;8.90;86.20
59572;DHT22;59406;45.602;11.904;2022-11-20T01:36:40;8.80;86.00
59572;DHT22;59406;45.602;11.904;2022-11-20T01:39:11;8.80;86.20
59572;DHT22;59406;45.602;11.904;2022-11-20T01:41:37;8.60;86.30
59572;DHT22;59406;45.602;11.904;2022-11-20T01:47:09;8.50;85.90
59572;DHT22;59406;45.602;11.904;2022-11-20T01:49:44;8.60;86.20
59572;DHT22;59406;45.602;11.904;2022-11-20T01:52:21;8.30;86.00
59572;DHT22;59406;45.602;11.904;2022-11-20T01:55:08;8.20;86.10
59572;DHT22;59406;45.602;11.904;2022-11-20T01:57:35;8.30;86.30
59572;DHT22;59406;45.602;11.904;2022-11-20T02:00:13;8.30;86.10
59572;DHT22;59406;45.602;11.904;2022-11-20T02:03:00;8.20;86.40
59572;DHT22;59406;45.602;11.904;2022-11-20T02:05:43;7.90;86.80
59572;DHT22;59406;45.602;11.904;2022-11-20T02:08:12;8.10;86.40
59572;DHT22;59406;45.602;11.904;2022-11-20T02:10:38;8.00;86.50
59572;DHT22;59406;45.602;11.904;2022-11-20T02:13:04;7.90;86.80
59572;DHT22;59406;45.602;11.904;2022-11-20T02:15:49;7.80;87.10
59572;DHT22;59406;45.602;11.904;2022-11-20T02:18:18;7.80;86.80
59572;DHT22;59406;45.602;11.904;2022-11-20T02:20:47;7.80;86.80
59572;DHT22;59406;45.602;11.904;2022-11-20T02:26:20;7.70;86.90
59572;DHT22;59406;45.602;11.904;2022-11-20T02:28:46;7.80;87.10
59572;DHT22;59406;45.602;11.904;2022-11-20T02:31:12;7.70;87.30
59572;DHT22;59406;45.602;11.904;2022-11-20T02:33:38;7.30;87.60
59572;DHT22;59406;45.602;11.904;2022-11-20T02:36:04;7.60;87.50
59572;DHT22;59406;45.602;11.904;2022-11-20T02:38:31;7.50;87.50
59572;DHT22;59406;45.602;11.904;2022-11-20T02:40:57;7.50;87.90
59572;DHT22;59406;45.602;11.904;2022-11-20T02:43:23;7.60;87.80
59572;DHT22;59406;45.602;11.904;2022-11-20T02:45:49;7.60;88.00
59572;DHT22;59406;45.602;11.904;2022-11-20T02:48:15;7.50;87.70
59572;DHT22;59406;45.602;11.904;2022-11-20T02:50:41;7.70;87.70
59572;DHT22;59406;45.602;11.904;2022-11-20T02:53:08;7.50;87.60
59572;DHT22;59406;45.602;11.904;2022-11-20T02:55:34;7.60;87.70
59572;DHT22;59406;45.602;11.904;2022-11-20T02:58:01;7.60;87.50
59572;DHT22;59406;45.602;11.904;2022-11-20T03:00:27;7.50;87.70
59572;DHT22;59406;45.602;11.904;2022-11-20T03:02:53;7.60;88.10
59572;DHT22;59406;45.602;11.904;2022-11-20T03:05:19;7.60;87.90
59572;DHT22;59406;45.602;11.904;2022-11-20T03:07:45;7.50;87.80
59572;DHT22;59406;45.602;11.904;2022-11-20T03:10:11;7.50;88.00
59572;DHT22;59406;45.602;11.904;2022-11-20T03:12:36;7.50;87.60
59572;DHT22;59406;45.602;11.904;2022-11-20T03:15:03;7.40;87.40
59572;DHT22;59406;45.602;11.904;2022-11-20T03:17:29;7.40;87.50
59572;DHT22;59406;45.602;11.904;2022-11-20T03:19:56;7.40;87.30
59572;DHT22;59406;45.602;11.904;2022-11-20T03:22:22;7.30;87.50
59572;DHT22;59406;45.602;11.904;2022-11-20T03:24:48;7.30;87.70
59572;DHT22;59406;45.602;11.904;2022-11-20T03:27:14;7.20;87.70
59572;DHT22;59406;45.602;11.904;2022-11-20T03:29:40;7.20;87.90
59572;DHT22;59406;45.602;11.904;2022-11-20T03:32:05;7.30;87.50
59572;DHT22;59406;45.602;11.904;2022-11-20T03:34:31;7.00;87.60
59572;DHT22;59406;45.602;11.904;2022-11-20T03:36:57;7.20;87.40
59572;DHT22;59406;45.602;11.904;2022-11-20T03:39:23;7.10;87.60
59572;DHT22;59406;45.602;11.904;2022-11-20T03:41:49;7.20;87.20
59572;DHT22;59406;45.602;11.904;2022-11-20T03:44:15;7.10;87.40
59572;DHT22;59406;45.602;11.904;2022-11-20T03:46:40;7.00;87.30
59572;DHT22;59406;45.602;11.904;2022-11-20T03:49:06;6.80;87.20
59572;DHT22;59406;45.602;11.904;2022-11-20T03:51:34;6.90;87.30
59572;DHT22;59406;45.602;11.904;2022-11-20T03:54:06;6.80;87.00
59572;DHT22;59406;45.602;11.904;2022-11-20T03:56:35;6.70;87.50
59572;DHT22;59406;45.602;11.904;2022-11-20T03:59:01;6.50;87.80
59572;DHT22;59406;45.602;11.904;2022-11-20T04:01:29;6.50;87.80
59572;DHT22;59406;45.602;11.904;2022-11-20T04:03:56;6.30;87.90
59572;DHT22;59406;45.602;11.904;2022-11-20T04:06:28;6.50;87.60
59572;DHT22;59406;45.602;11.904;2022-11-20T04:08:56;6.40;88.10
59572;DHT22;59406;45.602;11.904;2022-11-20T04:11:24;6.50;88.10
59572;DHT22;59406;45.602;11.904;2022-11-20T04:13:55;6.40;88.20
59572;DHT22;59406;45.602;11.904;2022-11-20T04:16:23;6.50;88.50
59572;DHT22;59406;45.602;11.904;2022-11-20T04:18:57;6.60;88.30
59572;DHT22;59406;45.602;11.904;2022-11-20T04:21:24;6.60;88.10
59572;DHT22;59406;45.602;11.904;2022-11-20T04:23:51;6.40;88.30
59572;DHT22;59406;45.602;11.904;2022-11-20T04:26:19;6.30;88.80
59572;DHT22;59406;45.602;11.904;2022-11-20T04:28:45;6.40;88.50
59572;DHT22;59406;45.602;11.904;2022-11-20T04:31:25;6.50;88.80
59572;DHT22;59406;45.602;11.904;2022-11-20T04:33:51;6.70;88.80
59572;DHT22;59406;45.602;11.904;2022-11-20T04:36:19;6.60;88.90
59572;DHT22;59406;45.602;11.904;2022-11-20T04:38:46;6.60;89.10
59572;DHT22;59406;45.602;11.904;2022-11-20T04:41:17;6.70;88.60
59572;DHT22;59406;45.602;11.904;2022-11-20T04:43:47;6.80;88.40
59572;DHT22;59406;45.602;11.904;2022-11-20T04:46:14;6.70;88.40
59572;DHT22;59406;45.602;11.904;2022-11-20T04:48:40;6.80;88.50
59572;DHT22;59406;45.602;11.904;2022-11-20T04:51:06;6.80;88.60
59572;DHT22;59406;45.602;11.904;2022-11-20T04:53:32;6.80;88.60
59572;DHT22;59406;45.602;11.904;2022-11-20T04:56:02;6.80;88.40
59572;DHT22;59406;45.602;11.904;2022-11-20T04:58:28;6.90;88.60
59572;DHT22;59406;45.602;11.904;2022-11-20T05:03:34;6.90;88.50
59572;DHT22;59406;45.602;11.904;2022-11-20T05:06:01;6.80;88.60
59572;DHT22;59406;45.602;11.904;2022-11-20T05:08:29;6.90;88.70
59572;DHT22;59406;45.602;11.904;2022-11-20T05:11:03;6.90;88.70
59572;DHT22;59406;45.602;11.904;2022-11-20T05:13:29;6.80;88.40
59572;DHT22;59406;45.602;11.904;2022-11-20T05:16:00;6.90;88.80
59572;DHT22;59406;45.602;11.904;2022-11-20T05:18:27;6.90;88.40
59572;DHT22;59406;45.602;11.904;2022-11-20T05:20:57;6.80;88.30
59572;DHT22;59406;45.602;11.904;2022-11-20T05:23:25;6.90;88.10
59572;DHT22;59406;45.602;11.904;2022-11-20T05:25:53;6.80;88.30
59572;DHT22;59406;45.602;11.904;2022-11-20T05:28:20;6.90;88.70
59572;DHT22;59406;45.602;11.904;2022-11-20T05:30:46;6.90;88.40
59572;DHT22;59406;45.602;11.904;2022-11-20T05:33:13;6.80;88.30
59572;DHT22;59406;45.602;11.904;2022-11-20T05:35:39;7.00;87.90
59572;DHT22;59406;45.602;11.904;2022-11-20T05:38:04;6.80;87.90
59572;DHT22;59406;45.602;11.904;2022-11-20T05:40:30;6.90;88.20
59572;DHT22;59406;45.602;11.904;2022-11-20T05:42:56;6.90;88.30
59572;DHT22;59406;45.602;11.904;2022-11-20T05:45:22;6.90;88.20
59572;DHT22;59406;45.602;11.904;2022-11-20T05:47:48;6.80;88.20
59572;DHT22;59406;45.602;11.904;2022-11-20T05:50:15;6.80;88.10
59572;DHT22;59406;45.602;11.904;2022-11-20T05:52:41;6.90;88.20
59572;DHT22;59406;45.602;11.904;2022-11-20T05:55:07;7.00;88.20
59572;DHT22;59406;45.602;11.904;2022-11-20T05:57:33;6.70;88.50
59572;DHT22;59406;45.602;11.904;2022-11-20T05:59:59;6.80;88.30
59572;DHT22;59406;45.602;11.904;2022-11-20T06:02:25;6.80;88.30
59572;DHT22;59406;45.602;11.904;2022-11-20T06:04:51;6.80;88.20
59572;DHT22;59406;45.602;11.904;2022-11-20T06:07:17;6.90;88.40
59572;DHT22;59406;45.602;11.904;2022-11-20T06:09:43;6.90;88.30
59572;DHT22;59406;45.602;11.904;2022-11-20T06:12:09;6.90;88.30
59572;DHT22;59406;45.602;11.904;2022-11-20T06:14:35;6.80;88.30
59572;DHT22;59406;45.602;11.904;2022-11-20T06:17:01;6.80;88.10
59572;DHT22;59406;45.602;11.904;2022-11-20T06:19:26;6.80;88.50
59572;DHT22;59406;45.602;11.904;2022-11-20T06:21:52;6.90;88.50
59572;DHT22;59406;45.602;11.904;2022-11-20T06:24:18;6.80;88.40
59572;DHT22;59406;45.602;11.904;2022-11-20T06:26:45;6.70;88.30
59572;DHT22;59406;45.602;11.904;2022-11-20T06:29:11;6.70;88.40
59572;DHT22;59406;45.602;11.904;2022-11-20T06:31:37;6.90;88.20
59572;DHT22;59406;45.602;11.904;2022-11-20T06:34:07;6.70;88.20
59572;DHT22;59406;45.602;11.904;2022-11-20T06:36:34;7.00;88.00
59572;DHT22;59406;45.602;11.904;2022-11-20T06:39:01;7.00;87.90
59572;DHT22;59406;45.602;11.904;2022-11-20T06:41:27;6.80;87.70
59572;DHT22;59406;45.602;11.904;2022-11-20T06:43:53;7.00;87.70
59572;DHT22;59406;45.602;11.904;2022-11-20T06:46:20;6.90;87.80
59572;DHT22;59406;45.602;11.904;2022-11-20T06:48:47;6.90;87.90
59572;DHT22;59406;45.602;11.904;2022-11-20T06:51:14;7.00;87.90
59572;DHT22;59406;45.602;11.904;2022-11-20T06:53:40;7.00;87.70
59572;DHT22;59406;45.602;11.904;2022-11-20T06:56:07;6.90;87.50
59572;DHT22;59406;45.602;11.904;2022-11-20T06:58:34;7.00;87.70
59572;DHT22;59406;45.602;11.904;2022-11-20T07:01:11;7.10;87.50
59572;DHT22;59406;45.602;11.904;2022-11-20T07:03:38;7.00;87.40
59572;DHT22;59406;45.602;11.904;2022-11-20T07:06:06;7.00;87.30
59572;DHT22;59406;45.602;11.904;2022-11-20T07:08:33;7.20;87.10
59572;DHT22;59406;45.602;11.904;2022-11-20T07:11:01;7.10;87.30
59572;DHT22;59406;45.602;11.904;2022-11-20T07:13:28;7.20;86.90
59572;DHT22;59406;45.602;11.904;2022-11-20T07:15:58;7.30;86.90
59572;DHT22;59406;45.602;11.904;2022-11-20T07:18:25;7.30;86.70
59572;DHT22;59406;45.602;11.904;2022-11-20T07:20:50;7.20;86.90
59572;DHT22;59406;45.602;11.904;2022-11-20T07:23:16;7.30;86.90
59572;DHT22;59406;45.602;11.904;2022-11-20T07:25:42;7.40;87.00
59572;DHT22;59406;45.602;11.904;2022-11-20T07:28:09;7.40;86.90
59572;DHT22;59406;45.602;11.904;2022-11-20T07:30:36;7.30;86.60
59572;DHT22;59406;45.602;11.904;2022-11-20T07:33:03;7.30;86.40
59572;DHT22;59406;45.602;11.904;2022-11-20T07:35:29;7.40;86.40
59572;DHT22;59406;45.602;11.904;2022-11-20T07:37:55;7.60;86.60
59572;DHT22;59406;45.602;11.904;2022-11-20T07:40:21;7.60;86.60
59572;DHT22;59406;45.602;11.904;2022-11-20T07:42:48;7.70;86.50
59572;DHT22;59406;45.602;11.904;2022-11-20T07:45:15;7.70;86.10
59572;DHT22;59406;45.602;11.904;2022-11-20T07:47:41;7.80;86.00
59572;DHT22;59406;45.602;11.904;2022-11-20T07:50:07;8.00;86.00
59572;DHT22;59406;45.602;11.904;2022-11-20T07:52:33;7.90;85.70
59572;DHT22;59406;45.602;11.904;2022-11-20T07:54:59;8.10;85.80
59572;DHT22;59406;45.602;11.904;2022-11-20T07:57:27;8.30;85.80
59572;DHT22;59406;45.602;11.904;2022-11-20T07:59:53;8.20;85.70
59572;DHT22;59406;45.602;11.904;2022-11-20T08:02:19;8.50;85.60
59572;DHT22;59406;45.602;11.904;2022-11-20T08:04:45;8.50;85.80
59572;DHT22;59406;45.602;11.904;2022-11-20T08:07:11;8.50;85.70
59572;DHT22;59406;45.602;11.904;2022-11-20T08:09:37;8.60;85.80
59572;DHT22;59406;45.602;11.904;2022-11-20T08:12:03;8.70;85.80
59572;DHT22;59406;45.602;11.904;2022-11-20T08:14:48;8.90;85.70
59572;DHT22;59406;45.602;11.904;2022-11-20T08:17:14;9.00;85.60
59572;DHT22;59406;45.602;11.904;2022-11-20T08:19:39;9.30;85.40
59572;DHT22;59406;45.602;11.904;2022-11-20T08:22:05;9.40;85.20
59572;DHT22;59406;45.602;11.904;2022-11-20T08:24:31;9.60;85.20
59572;DHT22;59406;45.602;11.904;2022-11-20T08:26:58;9.70;84.90
59572;DHT22;59406;45.602;11.904;2022-11-20T08:29:26;10.20;84.50
59572;DHT22;59406;45.602;11.904;2022-11-20T08:31:53;10.60;84.10
59572;DHT22;59406;45.602;11.904;2022-11-20T08:34:19;11.10;83.60
59572;DHT22;59406;45.602;11.904;2022-11-20T08:36:45;11.90;82.90
59572;DHT22;59406;45.602;11.904;2022-11-20T08:39:12;12.80;81.00
59572;DHT22;59406;45.602;11.904;2022-11-20T08:41:38;13.50;80.70
59572;DHT22;59406;45.602;11.904;2022-11-20T08:44:05;14.10;80.10
59572;DHT22;59406;45.602;11.904;2022-11-20T08:46:35;14.60;79.30
59572;DHT22;59406;45.602;11.904;2022-11-20T08:49:05;15.20;78.80
59572;DHT22;59406;45.602;11.904;2022-11-20T08:51:32;15.50;77.80
59572;DHT22;59406;45.602;11.904;2022-11-20T08:53:58;16.10;77.10
59572;DHT22;59406;45.602;11.904;2022-11-20T08:56:24;16.40;77.30
59572;DHT22;59406;45.602;11.904;2022-11-20T08:58:50;16.60;76.80
59572;DHT22;59406;45.602;11.904;2022-11-20T09:01:21;17.20;76.20
59572;DHT22;59406;45.602;11.904;2022-11-20T09:03:47;17.70;76.00
59572;DHT22;59406;45.602;11.904;2022-11-20T09:06:14;18.50;74.00
59572;DHT22;59406;45.602;11.904;2022-11-20T09:08:40;18.80;73.30
59572;DHT22;59406;45.602;11.904;2022-11-20T09:11:06;19.20;73.50
59572;DHT22;59406;45.602;11.904;2022-11-20T09:13:34;19.80;72.60
59572;DHT22;59406;45.602;11.904;2022-11-20T09:16:05;19.80;71.70
59572;DHT22;59406;45.602;11.904;2022-11-20T09:18:33;19.90;71.10
59572;DHT22;59406;45.602;11.904;2022-11-20T09:21:00;20.00;72.10
59572;DHT22;59406;45.602;11.904;2022-11-20T09:23:27;20.80;71.50
59572;DHT22;59406;45.602;11.904;2022-11-20T09:25:56;21.00;70.30
59572;DHT22;59406;45.602;11.904;2022-11-20T09:28:25;20.90;69.70
59572;DHT22;59406;45.602;11.904;2022-11-20T09:30:52;21.30;69.70
59572;DHT22;59406;45.602;11.904;2022-11-20T09:33:18;20.90;69.40
59572;DHT22;59406;45.602;11.904;2022-11-20T09:35:44;20.50;70.90
59572;DHT22;59406;45.602;11.904;2022-11-20T09:38:10;20.30;70.90
59572;DHT22;59406;45.602;11.904;2022-11-20T09:40:40;20.30;71.00
59572;DHT22;59406;45.602;11.904;2022-11-20T09:43:32;21.00;70.10
59572;DHT22;59406;45.602;11.904;2022-11-20T09:46:17;21.40;68.10
59572;DHT22;59406;45.602;11.904;2022-11-20T09:54:09;21.70;66.80
59572;DHT22;59406;45.602;11.904;2022-11-20T09:56:42;21.40;67.00
59572;DHT22;59406;45.602;11.904;2022-11-20T10:02:01;21.70;65.90
59572;DHT22;59406;45.602;11.904;2022-11-20T10:04:31;21.70;65.90
59572;DHT22;59406;45.602;11.904;2022-11-20T10:07:08;21.40;66.10
59572;DHT22;59406;45.602;11.904;2022-11-20T10:09:42;20.80;66.50
59572;DHT22;59406;45.602;11.904;2022-11-20T10:12:53;21.00;66.00
59572;DHT22;59406;45.602;11.904;2022-11-20T10:21:10;22.00;65.50
59572;DHT22;59406;45.602;11.904;2022-11-20T10:29:34;21.90;63.50
59572;DHT22;59406;45.602;11.904;2022-11-20T10:32:11;21.60;65.30
59572;DHT22;59406;45.602;11.904;2022-11-20T10:34:50;21.80;65.40
59572;DHT22;59406;45.602;11.904;2022-11-20T10:37:22;21.70;65.10
59572;DHT22;59406;45.602;11.904;2022-11-20T10:40:04;22.10;65.40
59572;DHT22;59406;45.602;11.904;2022-11-20T10:42:40;21.90;65.10
59572;DHT22;59406;45.602;11.904;2022-11-20T10:48:07;22.20;65.10
59572;DHT22;59406;45.602;11.904;2022-11-20T10:50:39;22.80;64.60
59572;DHT22;59406;45.602;11.904;2022-11-20T10:56:40;23.30;63.10
59572;DHT22;59406;45.602;11.904;2022-11-20T11:02:31;22.80;62.30
59572;DHT22;59406;45.602;11.904;2022-11-20T11:05:00;22.80;62.90
59572;DHT22;59406;45.602;11.904;2022-11-20T11:07:38;22.80;64.40
59572;DHT22;59406;45.602;11.904;2022-11-20T11:11:15;23.10;63.80
59572;DHT22;59406;45.602;11.904;2022-11-20T11:13:20;23.80;61.00
59572;DHT22;59406;45.602;11.904;2022-11-20T11:15:46;23.90;60.60
59572;DHT22;59406;45.602;11.904;2022-11-20T11:18:30;24.20;59.90
59572;DHT22;59406;45.602;11.904;2022-11-20T11:21:02;24.10;56.60
59572;DHT22;59406;45.602;11.904;2022-11-20T11:23:35;23.60;60.50
59572;DHT22;59406;45.602;11.904;2022-11-20T11:26:05;23.20;61.60
59572;DHT22;59406;45.602;11.904;2022-11-20T11:28:32;23.70;59.60
59572;DHT22;59406;45.602;11.904;2022-11-20T11:30:58;24.30;57.00
59572;DHT22;59406;45.602;11.904;2022-11-20T11:33:29;24.90;57.70
59572;DHT22;59406;45.602;11.904;2022-11-20T11:36:00;25.20;56.80
59572;DHT22;59406;45.602;11.904;2022-11-20T11:38:35;25.70;55.70
59572;DHT22;59406;45.602;11.904;2022-11-20T11:41:04;25.40;55.20
59572;DHT22;59406;45.602;11.904;2022-11-20T11:43:36;25.40;54.90
59572;DHT22;59406;45.602;11.904;2022-11-20T11:54:58;25.90;54.00
59572;DHT22;59406;45.602;11.904;2022-11-20T11:57:48;25.80;52.30
59572;DHT22;59406;45.602;11.904;2022-11-20T12:00:20;25.40;52.00
59572;DHT22;59406;45.602;11.904;2022-11-20T12:07:43;25.80;53.00
59572;DHT22;59406;45.602;11.904;2022-11-20T12:10:20;25.50;52.30
59572;DHT22;59406;45.602;11.904;2022-11-20T12:13:00;26.30;51.90
59572;DHT22;59406;45.602;11.904;2022-11-20T12:15:31;26.30;51.40
59572;DHT22;59406;45.602;11.904;2022-11-20T12:17:59;25.70;52.30
59572;DHT22;59406;45.602;11.904;2022-11-20T12:20:31;25.60;51.50
59572;DHT22;59406;45.602;11.904;2022-11-20T12:25:44;25.20;52.60
59572;DHT22;59406;45.602;11.904;2022-11-20T12:28:22;24.40;54.40
59572;DHT22;59406;45.602;11.904;2022-11-20T12:36:19;25.20;51.30
59572;DHT22;59406;45.602;11.904;2022-11-20T12:39:10;24.90;50.70
59572;DHT22;59406;45.602;11.904;2022-11-20T12:53:16;23.70;52.70
59572;DHT22;59406;45.602;11.904;2022-11-20T12:56:24;23.60;52.30
59572;DHT22;59406;45.602;11.904;2022-11-20T13:06:57;24.10;52.70
59572;DHT22;59406;45.602;11.904;2022-11-20T13:09:24;24.00;52.40
59572;DHT22;59406;45.602;11.904;2022-11-20T13:17:10;24.20;53.70
59572;DHT22;59406;45.602;11.904;2022-11-20T13:19:37;25.10;51.90
59572;DHT22;59406;45.602;11.904;2022-11-20T13:22:04;24.70;51.60
59572;DHT22;59406;45.602;11.904;2022-11-20T13:24:31;24.60;52.40
59572;DHT22;59406;45.602;11.904;2022-11-20T13:29:31;24.80;50.90
59572;DHT22;59406;45.602;11.904;2022-11-20T13:32:13;25.20;51.40
59572;DHT22;59406;45.602;11.904;2022-11-20T13:34:52;25.00;50.50
59572;DHT22;59406;45.602;11.904;2022-11-20T13:37:33;24.80;50.50
59572;DHT22;59406;45.602;11.904;2022-11-20T13:40:26;24.60;50.20
59572;DHT22;59406;45.602;11.904;2022-11-20T13:45:29;25.10;49.90
59572;DHT22;59406;45.602;11.904;2022-11-20T13:47:57;25.00;50.10
59572;DHT22;59406;45.602;11.904;2022-11-20T13:50:40;25.00;50.70
59572;DHT22;59406;45.602;11.904;2022-11-20T13:58:59;23.30;55.10
59572;DHT22;59406;45.602;11.904;2022-11-20T14:01:30;23.00;56.00
59572;DHT22;59406;45.602;11.904;2022-11-20T14:04:06;23.90;54.30
59572;DHT22;59406;45.602;11.904;2022-11-20T14:06:45;24.40;51.60
59572;DHT22;59406;45.602;11.904;2022-11-20T14:09:32;24.50;49.70
59572;DHT22;59406;45.602;11.904;2022-11-20T14:11:59;24.40;50.80
59572;DHT22;59406;45.602;11.904;2022-11-20T14:14:29;25.40;50.10
59572;DHT22;59406;45.602;11.904;2022-11-20T14:17:18;26.20;48.90
59572;DHT22;59406;45.602;11.904;2022-11-20T14:19:47;27.30;44.60
59572;DHT22;59406;45.602;11.904;2022-11-20T14:22:23;27.60;45.10
59572;DHT22;59406;45.602;11.904;2022-11-20T14:27:34;26.60;45.60
59572;DHT22;59406;45.602;11.904;2022-11-20T14:30:02;26.50;46.40
59572;DHT22;59406;45.602;11.904;2022-11-20T14:32:30;26.70;46.00
59572;DHT22;59406;45.602;11.904;2022-11-20T14:35:02;26.70;46.00
59572;DHT22;59406;45.602;11.904;2022-11-20T14:37:32;26.10;48.00
59572;DHT22;59406;45.602;11.904;2022-11-20T14:39:59;26.00;47.40
59572;DHT22;59406;45.602;11.904;2022-11-20T14:42:27;25.70;48.30
59572;DHT22;59406;45.602;11.904;2022-11-20T14:44:58;25.30;48.90
59572;DHT22;59406;45.602;11.904;2022-11-20T14:47:27;24.50;49.70
59572;DHT22;59406;45.602;11.904;2022-11-20T14:49:54;23.70;51.50
59572;DHT22;59406;45.602;11.904;2022-11-20T14:52:23;23.00;54.80
59572;DHT22;59406;45.602;11.904;2022-11-20T14:54:57;21.90;56.30
59572;DHT22;59406;45.602;11.904;2022-11-20T15:02:46;19.30;64.80
59572;DHT22;59406;45.602;11.904;2022-11-20T15:05:13;18.80;65.50
59572;DHT22;59406;45.602;11.904;2022-11-20T15:07:44;18.20;66.10
59572;DHT22;59406;45.602;11.904;2022-11-20T15:10:24;17.70;67.60
59572;DHT22;59406;45.602;11.904;2022-11-20T15:13:01;17.30;67.90
59572;DHT22;59406;45.602;11.904;2022-11-20T15:16:04;17.00;68.20
59572;DHT22;59406;45.602;11.904;2022-11-20T15:18:23;16.80;68.50
59572;DHT22;59406;45.602;11.904;2022-11-20T15:20:50;16.40;68.90
59572;DHT22;59406;45.602;11.904;2022-11-20T15:23:18;16.00;69.40
59572;DHT22;59406;45.602;11.904;2022-11-20T15:25:45;15.70;69.70
59572;DHT22;59406;45.602;11.904;2022-11-20T15:28:17;15.70;69.60
59572;DHT22;59406;45.602;11.904;2022-11-20T15:30:46;15.50;69.80
59572;DHT22;59406;45.602;11.904;2022-11-20T15:33:13;15.70;69.80
59572;DHT22;59406;45.602;11.904;2022-11-20T15:35:38;15.60;69.90
59572;DHT22;59406;45.602;11.904;2022-11-20T15:38:05;15.30;71.30
59572;DHT22;59406;45.602;11.904;2022-11-20T15:40:31;15.20;71.60
59572;DHT22;59406;45.602;11.904;2022-11-20T15:42:57;14.90;72.00
59572;DHT22;59406;45.602;11.904;2022-11-20T15:45:37;14.60;72.10
59572;DHT22;59406;45.602;11.904;2022-11-20T15:48:08;14.50;72.20
59572;DHT22;59406;45.602;11.904;2022-11-20T15:53:38;14.20;73.20
59572;DHT22;59406;45.602;11.904;2022-11-20T15:56:04;13.90;73.00
59572;DHT22;59406;45.602;11.904;2022-11-20T15:58:30;13.80;73.10
59572;DHT22;59406;45.602;11.904;2022-11-20T16:00:56;13.70;73.40
59572;DHT22;59406;45.602;11.904;2022-11-20T16:03:22;13.60;73.40
59572;DHT22;59406;45.602;11.904;2022-11-20T16:05:48;13.50;73.40
59572;DHT22;59406;45.602;11.904;2022-11-20T16:08:14;13.40;73.80
59572;DHT22;59406;45.602;11.904;2022-11-20T16:10:41;13.30;73.60
59572;DHT22;59406;45.602;11.904;2022-11-20T16:13:15;13.20;73.80
59572;DHT22;59406;45.602;11.904;2022-11-20T16:16:04;13.10;74.10
59572;DHT22;59406;45.602;11.904;2022-11-20T16:18:30;13.10;74.00
59572;DHT22;59406;45.602;11.904;2022-11-20T16:20:57;12.90;74.10
59572;DHT22;59406;45.602;11.904;2022-11-20T16:23:23;12.90;74.10
59572;DHT22;59406;45.602;11.904;2022-11-20T16:25:49;12.80;74.00
59572;DHT22;59406;45.602;11.904;2022-11-20T16:28:16;12.80;74.20
59572;DHT22;59406;45.602;11.904;2022-11-20T16:30:42;12.80;74.00
59572;DHT22;59406;45.602;11.904;2022-11-20T16:33:16;12.60;75.40
59572;DHT22;59406;45.602;11.904;2022-11-20T16:35:43;12.60;75.40
59572;DHT22;59406;45.602;11.904;2022-11-20T16:38:09;12.60;75.30
59572;DHT22;59406;45.602;11.904;2022-11-20T16:40:35;12.70;75.40
59572;DHT22;59406;45.602;11.904;2022-11-20T16:43:09;12.50;75.30
59572;DHT22;59406;45.602;11.904;2022-11-20T16:45:43;12.50;75.50
59572;DHT22;59406;45.602;11.904;2022-11-20T16:48:14;12.30;75.70
59572;DHT22;59406;45.602;11.904;2022-11-20T16:50:51;12.30;75.60
59572;DHT22;59406;45.602;11.904;2022-11-20T16:53:19;12.10;75.70
59572;DHT22;59406;45.602;11.904;2022-11-20T16:55:46;12.10;75.60
59572;DHT22;59406;45.602;11.904;2022-11-20T16:58:14;11.80;75.80
59572;DHT22;59406;45.602;11.904;2022-11-20T17:00:40;11.90;75.70
59572;DHT22;59406;45.602;11.904;2022-11-20T17:03:07;11.70;76.00
59572;DHT22;59406;45.602;11.904;2022-11-20T17:05:34;11.60;76.20
59572;DHT22;59406;45.602;11.904;2022-11-20T17:08:00;11.40;76.60
59572;DHT22;59406;45.602;11.904;2022-11-20T17:10:26;11.20;76.70
59572;DHT22;59406;45.602;11.904;2022-11-20T17:12:52;11.10;77.10
59572;DHT22;59406;45.602;11.904;2022-11-20T17:15:18;11.00;77.30
59572;DHT22;59406;45.602;11.904;2022-11-20T17:17:44;11.00;77.40
59572;DHT22;59406;45.602;11.904;2022-11-20T17:20:10;10.90;77.40
59572;DHT22;59406;45.602;11.904;2022-11-20T17:22:37;10.80;77.70
59572;DHT22;59406;45.602;11.904;2022-11-20T17:25:04;10.70;77.50